createdAt,value
2018-11-06T00:00:27.184Z,10.60
2018-11-06T00:03:00.915Z,10.60
2018-11-06T00:05:29.210Z,10.50
2018-11-06T00:07:57.474Z,10.40
2018-11-06T00:10:25.709Z,10.40
2018-11-06T00:12:53.999Z,10.40
2018-11-06T00:15:22.236Z,10.30
2018-11-06T00:17:50.626Z,10.20
2018-11-06T00:20:18.887Z,10.20
2018-11-06T00:22:47.124Z,10.20
2018-11-06T00:25:15.336Z,10.20
2018-11-06T00:27:43.566Z,10.20
2018-11-06T00:30:12.934Z,10.10
2018-11-06T00:32:41.739Z,10.10
2018-11-06T00:35:11.470Z,10.20
2018-11-06T00:37:40.555Z,10.20
2018-11-06T00:40:08.808Z,10.00
2018-11-06T00:42:37.145Z,10.10
2018-11-06T00:45:07.423Z,10.10
2018-11-06T00:47:35.687Z,10.10
2018-11-06T00:50:04.504Z,10.10
2018-11-06T00:52:32.739Z,10.10
2018-11-06T00:55:00.936Z,10.00
2018-11-06T00:57:29.186Z,10.00
2018-11-06T00:59:57.868Z,9.90
2018-11-06T01:02:26.099Z,9.60
2018-11-06T01:04:54.338Z,9.60
2018-11-06T01:07:22.552Z,9.80
2018-11-06T01:09:50.817Z,9.80
2018-11-06T01:12:19.070Z,9.80
2018-11-06T01:14:47.274Z,9.90
2018-11-06T01:17:15.540Z,9.90
2018-11-06T01:19:43.748Z,9.90
2018-11-06T01:22:11.979Z,9.80
2018-11-06T01:24:40.251Z,9.80
2018-11-06T01:27:08.435Z,9.80
2018-11-06T01:29:36.668Z,9.80
2018-11-06T01:32:05.208Z,9.60
2018-11-06T01:34:33.420Z,9.60
2018-11-06T01:37:01.618Z,9.60
2018-11-06T01:39:29.818Z,9.50
2018-11-06T01:41:58.146Z,9.60
2018-11-06T01:44:26.366Z,9.70
2018-11-06T01:46:54.647Z,9.70
2018-11-06T01:49:22.896Z,9.70
2018-11-06T01:51:51.183Z,9.70
2018-11-06T01:54:19.475Z,9.70
2018-11-06T01:56:47.724Z,9.50
2018-11-06T01:59:15.929Z,9.40
2018-11-06T02:01:44.148Z,9.40
2018-11-06T02:04:13.203Z,9.40
2018-11-06T02:06:41.433Z,9.50
2018-11-06T02:09:10.490Z,9.50
2018-11-06T02:11:38.710Z,9.50
2018-11-06T02:14:07.342Z,9.50
2018-11-06T02:16:35.555Z,9.50
2018-11-06T02:19:03.781Z,9.60
2018-11-06T02:21:32.014Z,9.70
2018-11-06T02:24:00.237Z,9.80
2018-11-06T02:26:28.462Z,9.70
2018-11-06T02:28:56.692Z,9.70
2018-11-06T02:31:24.915Z,9.60
2018-11-06T02:33:53.127Z,9.60
2018-11-06T02:36:21.359Z,9.50
2018-11-06T02:38:49.591Z,9.50
2018-11-06T02:41:17.824Z,9.60
2018-11-06T02:43:46.019Z,9.70
2018-11-06T02:46:14.263Z,9.70
2018-11-06T02:48:42.614Z,9.70
2018-11-06T02:51:10.823Z,9.70
2018-11-06T02:53:39.086Z,9.70
2018-11-06T02:56:07.407Z,9.80
2018-11-06T02:58:35.702Z,9.70
2018-11-06T03:01:03.909Z,9.70
2018-11-06T03:03:37.394Z,9.90
2018-11-06T03:06:05.627Z,9.90
2018-11-06T03:08:33.862Z,9.90
2018-11-06T03:11:02.104Z,10.00
2018-11-06T03:13:30.328Z,10.20
2018-11-06T03:15:58.556Z,10.30
2018-11-06T03:18:26.767Z,10.40
2018-11-06T03:20:55.047Z,10.40
2018-11-06T03:23:23.287Z,10.60
2018-11-06T03:25:51.535Z,10.70
2018-11-06T03:28:19.791Z,10.70
2018-11-06T03:30:48.043Z,10.80
2018-11-06T03:33:16.291Z,10.80
2018-11-06T03:35:44.513Z,10.80
2018-11-06T03:38:12.741Z,10.80
2018-11-06T03:40:41.006Z,10.80
2018-11-06T03:43:09.219Z,10.80
2018-11-06T03:45:37.456Z,10.80
2018-11-06T03:48:05.700Z,10.80
2018-11-06T03:50:33.934Z,10.80
2018-11-06T03:53:02.193Z,11.00
2018-11-06T03:55:30.478Z,11.10
2018-11-06T03:57:58.714Z,11.20
2018-11-06T04:00:26.939Z,11.00
2018-11-06T04:02:55.182Z,10.90
2018-11-06T04:05:23.437Z,10.80
2018-11-06T04:07:51.664Z,10.80
2018-11-06T04:10:19.908Z,10.60
2018-11-06T04:12:48.128Z,10.60
2018-11-06T04:15:16.390Z,10.70
2018-11-06T04:17:44.987Z,10.80
2018-11-06T04:20:13.244Z,10.70
2018-11-06T04:22:41.971Z,10.90
2018-11-06T04:25:10.255Z,10.90
2018-11-06T04:27:38.498Z,11.00
2018-11-06T04:30:08.776Z,11.00
2018-11-06T04:32:36.979Z,11.20
2018-11-06T04:35:05.985Z,11.20
2018-11-06T04:37:34.214Z,11.20
2018-11-06T04:40:02.518Z,11.20
2018-11-06T04:42:30.757Z,11.20
2018-11-06T04:44:58.999Z,11.40
2018-11-06T04:47:27.205Z,11.40
2018-11-06T04:49:55.723Z,11.40
2018-11-06T04:52:23.979Z,11.30
2018-11-06T04:54:52.191Z,11.10
2018-11-06T04:57:20.419Z,10.90
2018-11-06T04:59:48.634Z,10.80
2018-11-06T05:02:16.977Z,10.80
2018-11-06T05:04:45.085Z,10.80
2018-11-06T05:07:13.317Z,10.80
2018-11-06T05:09:41.532Z,10.80
2018-11-06T05:12:09.763Z,10.70
2018-11-06T05:14:38.035Z,10.60
2018-11-06T05:17:06.250Z,10.60
2018-11-06T05:19:34.495Z,10.50
2018-11-06T05:22:02.769Z,10.50
2018-11-06T05:24:31.039Z,10.40
2018-11-06T05:26:59.291Z,10.30
2018-11-06T05:29:27.486Z,10.20
2018-11-06T05:31:55.704Z,10.30
2018-11-06T05:34:23.922Z,10.20
2018-11-06T05:36:52.137Z,10.20
2018-11-06T05:39:20.401Z,10.30
2018-11-06T05:41:48.630Z,10.40
2018-11-06T05:44:16.864Z,10.50
2018-11-06T05:46:45.121Z,10.60
2018-11-06T05:49:13.368Z,10.60
2018-11-06T05:51:41.583Z,10.60
2018-11-06T05:54:09.803Z,10.60
2018-11-06T05:56:38.032Z,10.50
2018-11-06T05:59:06.279Z,10.50
2018-11-06T06:01:34.557Z,10.60
2018-11-06T06:04:02.780Z,10.70
2018-11-06T06:06:31.023Z,10.70
2018-11-06T06:08:59.263Z,10.70
2018-11-06T06:11:27.475Z,10.60
2018-11-06T06:13:55.688Z,10.60
2018-11-06T06:16:23.927Z,10.60
2018-11-06T06:18:52.175Z,10.70
2018-11-06T06:21:20.399Z,10.80
2018-11-06T06:23:48.646Z,10.80
2018-11-06T06:26:16.915Z,10.80
2018-11-06T06:28:45.327Z,10.80
2018-11-06T06:31:13.673Z,10.90
2018-11-06T06:33:41.910Z,10.80
2018-11-06T06:36:10.131Z,10.60
2018-11-06T06:38:38.437Z,10.80
2018-11-06T06:41:06.774Z,10.60
2018-11-06T06:43:34.916Z,10.50
2018-11-06T06:46:03.128Z,10.50
2018-11-06T06:48:31.431Z,10.60
2018-11-06T06:50:59.715Z,10.70
2018-11-06T06:53:27.967Z,10.80
2018-11-06T06:55:56.233Z,10.70
2018-11-06T06:58:24.457Z,10.70
2018-11-06T07:00:52.772Z,10.80
2018-11-06T07:03:21.088Z,10.90
2018-11-06T07:05:49.341Z,10.90
2018-11-06T07:08:17.655Z,10.90
2018-11-06T07:10:45.914Z,10.90
2018-11-06T07:13:14.257Z,10.90
2018-11-06T07:15:42.545Z,10.80
2018-11-06T07:18:10.920Z,10.90
2018-11-06T07:20:39.202Z,11.00
2018-11-06T07:23:07.479Z,11.10
2018-11-06T07:25:35.738Z,11.10
2018-11-06T07:28:04.070Z,11.20
2018-11-06T07:30:32.379Z,11.40
2018-11-06T07:33:00.637Z,11.50
2018-11-06T07:35:28.998Z,11.60
2018-11-06T07:37:57.179Z,11.60
2018-11-06T07:40:25.515Z,11.60
2018-11-06T07:42:53.846Z,11.70
2018-11-06T07:45:22.438Z,11.80
2018-11-06T07:47:50.701Z,12.00
2018-11-06T07:50:19.027Z,12.00
2018-11-06T07:52:47.390Z,12.30
2018-11-06T07:55:17.087Z,12.40
2018-11-06T07:57:45.324Z,12.50
2018-11-06T08:00:18.276Z,12.70
2018-11-06T08:02:47.454Z,12.70
2018-11-06T08:05:16.039Z,12.90
2018-11-06T08:07:45.123Z,12.90
2018-11-06T08:10:13.460Z,13.00
2018-11-06T08:12:44.930Z,13.20
2018-11-06T08:15:13.981Z,13.20
2018-11-06T08:17:43.029Z,13.20
2018-11-06T08:20:11.399Z,13.10
2018-11-06T08:22:39.833Z,13.00
2018-11-06T08:25:09.676Z,13.10
2018-11-06T08:27:38.488Z,12.90
2018-11-06T08:30:07.412Z,12.90
2018-11-06T08:32:36.500Z,13.00
2018-11-06T08:35:04.823Z,13.00
2018-11-06T08:37:33.286Z,13.20
2018-11-06T08:40:01.582Z,13.30
2018-11-06T08:42:30.021Z,13.40
2018-11-06T08:44:58.274Z,13.60
2018-11-06T08:47:26.596Z,13.70
2018-11-06T08:49:54.868Z,13.60
2018-11-06T08:52:23.143Z,13.70
2018-11-06T08:54:51.409Z,13.80
2018-11-06T08:57:19.660Z,13.80
2018-11-06T08:59:47.966Z,13.70
2018-11-06T09:02:16.234Z,13.70
2018-11-06T09:04:44.537Z,13.70
2018-11-06T09:07:12.799Z,13.80
2018-11-06T09:09:41.076Z,13.70
2018-11-06T09:12:09.355Z,13.70
2018-11-06T09:14:37.638Z,13.70
2018-11-06T09:17:07.314Z,14.00
2018-11-06T09:19:35.620Z,14.10
2018-11-06T09:22:04.153Z,14.20
2018-11-06T09:24:32.367Z,14.20
2018-11-06T09:27:00.597Z,14.00
2018-11-06T09:29:28.969Z,14.10
2018-11-06T09:31:57.221Z,14.30
2018-11-06T09:34:25.619Z,14.40
2018-11-06T09:36:53.851Z,14.50
2018-11-06T09:39:22.093Z,14.70
2018-11-06T09:41:50.387Z,14.60
2018-11-06T09:44:18.714Z,14.60
2018-11-06T09:46:47.011Z,14.50
2018-11-06T09:49:15.466Z,14.80
2018-11-06T09:51:43.773Z,15.00
2018-11-06T09:54:12.423Z,14.80
2018-11-06T09:56:40.679Z,14.90
2018-11-06T09:59:08.928Z,14.90
2018-11-06T10:01:37.155Z,15.00
2018-11-06T10:04:05.600Z,15.10
2018-11-06T10:06:33.981Z,15.10
2018-11-06T10:09:02.100Z,15.10
2018-11-06T10:11:30.564Z,15.20
2018-11-06T10:13:58.814Z,14.90
2018-11-06T10:16:27.154Z,15.00
2018-11-06T10:18:56.198Z,15.10
2018-11-06T10:21:24.686Z,15.30
2018-11-06T10:23:53.561Z,15.50
2018-11-06T10:26:22.301Z,15.50
2018-11-06T10:28:50.669Z,15.40
2018-11-06T10:31:19.013Z,15.60
2018-11-06T10:33:48.201Z,15.70
2018-11-06T10:36:16.594Z,15.70
2018-11-06T10:38:44.947Z,15.80
2018-11-06T10:41:13.468Z,15.80
2018-11-06T10:43:41.881Z,15.70
2018-11-06T10:46:10.060Z,15.90
2018-11-06T10:48:38.344Z,15.90
2018-11-06T10:51:06.644Z,15.90
2018-11-06T10:53:34.884Z,15.90
2018-11-06T10:56:03.198Z,16.10
2018-11-06T10:58:31.744Z,16.10
2018-11-06T11:01:05.338Z,16.10
2018-11-06T11:03:37.975Z,16.10
2018-11-06T11:06:06.302Z,16.20
2018-11-06T11:08:34.536Z,16.30
2018-11-06T11:11:02.838Z,16.20
2018-11-06T11:13:31.223Z,16.20
2018-11-06T11:15:59.474Z,16.30
2018-11-06T11:18:27.789Z,16.70
2018-11-06T11:20:56.064Z,16.70
2018-11-06T11:23:24.397Z,16.60
2018-11-06T11:25:52.669Z,16.60
2018-11-06T11:28:20.905Z,16.70
2018-11-06T11:30:49.185Z,16.90
2018-11-06T11:33:17.547Z,17.00
2018-11-06T11:35:45.829Z,17.20
2018-11-06T11:38:14.139Z,17.20
2018-11-06T11:40:42.450Z,17.10
2018-11-06T11:43:10.950Z,17.20
2018-11-06T11:45:39.334Z,17.40
2018-11-06T11:48:07.716Z,17.30
2018-11-06T11:50:36.003Z,17.20
2018-11-06T11:53:04.357Z,17.40
2018-11-06T11:55:32.681Z,17.50
2018-11-06T11:58:01.147Z,17.60
2018-11-06T12:00:29.501Z,17.50
2018-11-06T12:02:58.288Z,17.50
2018-11-06T12:05:26.579Z,17.70
2018-11-06T12:07:54.928Z,17.80
2018-11-06T12:10:23.239Z,17.90
2018-11-06T12:12:51.696Z,18.00
2018-11-06T12:15:19.984Z,18.20
2018-11-06T12:17:48.267Z,18.40
2018-11-06T12:20:16.902Z,18.50
2018-11-06T12:22:45.264Z,18.50
2018-11-06T12:25:14.085Z,18.80
2018-11-06T12:27:43.458Z,18.80
2018-11-06T12:30:13.611Z,19.00
2018-11-06T12:32:42.334Z,18.90
2018-11-06T12:35:11.500Z,19.00
2018-11-06T12:37:40.094Z,19.00
2018-11-06T12:40:09.604Z,19.00
2018-11-06T12:42:38.520Z,19.00
2018-11-06T12:45:08.386Z,18.70
2018-11-06T12:47:36.668Z,18.80
2018-11-06T12:50:05.298Z,18.70
2018-11-06T12:52:33.559Z,18.90
2018-11-06T12:55:01.868Z,18.90
2018-11-06T12:57:30.186Z,19.00
2018-11-06T12:59:58.514Z,19.10
2018-11-06T13:02:27.038Z,19.00
2018-11-06T13:04:55.321Z,19.00
2018-11-06T13:07:27.279Z,19.10
2018-11-06T13:09:55.542Z,19.30
2018-11-06T13:12:23.865Z,19.50
2018-11-06T13:14:52.144Z,19.80
2018-11-06T13:17:20.419Z,19.80
2018-11-06T13:19:48.708Z,19.90
2018-11-06T13:22:16.990Z,19.90
2018-11-06T13:24:45.599Z,20.00
2018-11-06T13:27:14.125Z,19.90
2018-11-06T13:29:42.427Z,19.70
2018-11-06T13:32:10.770Z,19.70
2018-11-06T13:34:39.055Z,19.80
2018-11-06T13:37:07.427Z,19.70
2018-11-06T13:39:35.683Z,19.90
2018-11-06T13:42:04.376Z,19.70
2018-11-06T13:44:32.944Z,19.70
2018-11-06T13:47:01.136Z,19.60
2018-11-06T13:49:29.500Z,19.50
2018-11-06T13:51:57.861Z,19.60
2018-11-06T13:54:26.625Z,19.50
2018-11-06T13:56:55.117Z,19.50
2018-11-06T13:59:23.472Z,19.50
2018-11-06T14:01:51.763Z,19.40
2018-11-06T14:04:20.114Z,19.40
2018-11-06T14:06:48.407Z,19.30
2018-11-06T14:09:16.740Z,19.20
2018-11-06T14:11:44.994Z,19.20
2018-11-06T14:14:13.252Z,19.30
2018-11-06T14:16:41.564Z,19.20
2018-11-06T14:19:09.847Z,19.30
2018-11-06T14:21:38.153Z,19.20
2018-11-06T14:24:06.422Z,19.00
2018-11-06T14:26:34.669Z,18.90
2018-11-06T14:29:03.591Z,18.90
2018-11-06T14:31:31.906Z,18.90
2018-11-06T14:34:00.171Z,19.00
2018-11-06T14:36:28.856Z,18.90
2018-11-06T14:38:57.533Z,19.00
2018-11-06T14:41:26.429Z,19.10
2018-11-06T14:43:56.811Z,19.10
2018-11-06T14:46:25.473Z,19.00
2018-11-06T14:48:55.423Z,19.10
2018-11-06T14:51:24.486Z,18.60
2018-11-06T14:53:53.069Z,18.70
2018-11-06T14:56:21.872Z,18.80
2018-11-06T14:58:56.158Z,18.70
2018-11-06T15:01:30.779Z,18.70
2018-11-06T15:04:05.023Z,18.60
2018-11-06T15:35:11.496Z,18.40
2018-11-06T15:37:40.222Z,17.40
2018-11-06T15:40:11.849Z,17.30
2018-11-06T15:42:40.147Z,17.10
2018-11-06T15:45:14.197Z,17.10
2018-11-06T15:47:44.342Z,17.00
2018-11-06T15:50:15.806Z,16.90
2018-11-06T15:55:24.461Z,16.70
2018-11-06T15:57:53.062Z,16.60
2018-11-06T16:00:22.929Z,16.40
2018-11-06T16:02:51.956Z,16.40
2018-11-06T16:05:20.665Z,16.40
2018-11-06T16:07:49.708Z,16.40
2018-11-06T16:10:19.793Z,16.20
2018-11-06T16:12:49.127Z,16.10
2018-11-06T16:15:18.001Z,16.10
2018-11-06T16:17:47.091Z,15.90
2018-11-06T16:20:17.490Z,15.90
2018-11-06T16:22:46.435Z,15.90
2018-11-06T16:25:16.304Z,15.70
2018-11-06T16:27:45.284Z,15.60
2018-11-06T16:30:17.075Z,15.60
2018-11-06T16:32:49.701Z,15.40
2018-11-06T16:35:21.219Z,15.30
2018-11-06T16:37:50.317Z,15.20
2018-11-06T16:40:19.506Z,15.20
2018-11-06T16:42:48.275Z,15.30
2018-11-06T16:45:19.166Z,15.20
2018-11-06T16:47:48.439Z,15.30
2018-11-06T16:50:17.607Z,15.20
2018-11-06T16:52:46.164Z,15.10
2018-11-06T16:55:15.106Z,15.10
2018-11-06T16:57:44.484Z,15.10
2018-11-06T17:00:16.373Z,15.10
2018-11-06T17:02:47.242Z,15.00
2018-11-06T17:09:19.890Z,15.00
2018-11-06T17:11:49.892Z,14.90
2018-11-06T17:14:21.187Z,15.00
2018-11-06T17:16:50.193Z,15.20
2018-11-06T17:19:19.904Z,14.90
2018-11-06T17:22:01.865Z,14.90
2018-11-06T17:24:30.255Z,14.80
2018-11-06T17:26:59.405Z,14.90
2018-11-06T17:29:27.819Z,14.80
2018-11-06T17:31:57.809Z,14.70
2018-11-06T17:34:28.436Z,14.70
2018-11-06T17:36:56.840Z,14.80
2018-11-06T17:39:25.373Z,14.90
2018-11-06T17:41:53.890Z,14.90
2018-11-06T17:44:23.416Z,14.90
2018-11-06T17:46:53.786Z,14.90
2018-11-06T17:49:26.720Z,14.80
2018-11-06T17:51:55.655Z,14.80
2018-11-06T17:54:24.507Z,15.00
2018-11-06T17:56:53.586Z,14.90
2018-11-06T17:59:22.338Z,14.80
2018-11-06T18:01:53.260Z,14.90
2018-11-06T18:04:23.298Z,14.70
2018-11-06T18:06:52.539Z,14.70
2018-11-06T18:09:22.189Z,14.80
2018-11-06T18:11:53.460Z,14.80
2018-11-06T18:14:22.167Z,14.80
2018-11-06T18:16:52.346Z,14.80
2018-11-06T18:19:21.020Z,14.70
2018-11-06T18:21:50.715Z,14.80
2018-11-06T18:24:28.400Z,14.80
2018-11-06T18:27:07.233Z,14.70
2018-11-06T18:29:38.323Z,14.70
2018-11-06T18:32:08.500Z,14.70
2018-11-06T18:34:38.824Z,14.70
2018-11-06T18:42:45.806Z,14.70
2018-11-06T18:45:46.483Z,14.60
2018-11-06T18:48:15.941Z,14.50
2018-11-06T18:50:45.703Z,14.60
2018-11-06T18:53:18.147Z,14.60
2018-11-06T18:55:46.686Z,14.50
2018-11-06T18:58:15.515Z,14.30
2018-11-06T19:00:43.948Z,14.30
2018-11-06T19:03:12.475Z,14.20
2018-11-06T19:05:40.923Z,14.30
2018-11-06T19:08:09.274Z,14.30
2018-11-06T19:10:37.603Z,14.20
2018-11-06T19:13:05.953Z,14.30
2018-11-06T19:15:34.555Z,14.20
2018-11-06T19:18:03.216Z,14.10
2018-11-06T19:20:33.297Z,14.20
2018-11-06T19:23:02.145Z,14.10
2018-11-06T19:25:32.141Z,14.00
2018-11-06T19:28:00.852Z,14.10
2018-11-06T19:30:29.304Z,14.10
2018-11-06T19:32:59.317Z,14.10
2018-11-06T19:35:28.121Z,14.10
2018-11-06T19:37:57.395Z,14.10
2018-11-06T19:40:25.876Z,14.10
2018-11-06T19:42:55.632Z,14.20
2018-11-06T19:45:23.911Z,14.10
2018-11-06T19:47:52.252Z,14.10
2018-11-06T19:50:21.123Z,14.10
2018-11-06T19:52:50.204Z,14.20
2018-11-06T19:55:19.040Z,14.10
2018-11-06T19:57:47.527Z,14.20
2018-11-06T20:00:17.855Z,14.20
2018-11-06T20:02:47.506Z,14.10
2018-11-06T20:05:15.851Z,14.10
2018-11-06T20:07:45.112Z,14.10
2018-11-06T20:10:15.050Z,14.10
2018-11-06T20:12:44.435Z,14.10
2018-11-06T20:15:14.202Z,14.20
2018-11-06T20:17:43.217Z,14.20
2018-11-06T20:20:17.047Z,14.10
2018-11-06T20:22:45.788Z,14.10
2018-11-06T20:25:14.670Z,14.10
2018-11-06T20:27:43.620Z,14.20
2018-11-06T20:30:15.431Z,14.30
2018-11-06T20:32:43.810Z,14.10
2018-11-06T20:35:12.575Z,14.10
2018-11-06T20:37:40.808Z,14.10
2018-11-06T20:40:11.314Z,14.00
2018-11-06T20:42:40.063Z,13.90
2018-11-06T20:45:09.627Z,13.80
2018-11-06T20:47:37.874Z,13.70
2018-11-06T20:50:09.599Z,13.80
2018-11-06T20:52:37.900Z,13.90
2018-11-06T20:55:06.879Z,13.80
2018-11-06T20:57:35.139Z,13.80
2018-11-06T21:00:03.513Z,13.80
2018-11-06T21:02:31.919Z,13.80
2018-11-06T21:05:00.788Z,13.80
2018-11-06T21:07:29.062Z,13.80
2018-11-06T21:09:57.370Z,13.70
2018-11-06T21:12:25.599Z,13.70
2018-11-06T21:14:54.374Z,13.70
2018-11-06T21:17:22.617Z,13.70
2018-11-06T21:19:50.972Z,13.70
2018-11-06T21:22:19.135Z,13.60
2018-11-06T21:24:47.397Z,13.60
2018-11-06T21:27:15.682Z,13.30
2018-11-06T21:29:44.029Z,13.40
2018-11-06T21:32:15.386Z,13.40
2018-11-06T21:34:44.019Z,13.40
2018-11-06T21:37:15.583Z,13.50
2018-11-06T21:39:43.965Z,13.50
2018-11-06T21:42:13.382Z,13.30
2018-11-06T21:44:41.832Z,13.50
2018-11-06T21:47:10.229Z,13.40
2018-11-06T21:49:38.665Z,13.40
2018-11-06T21:52:06.914Z,13.40
2018-11-06T21:54:35.251Z,13.50
2018-11-06T21:57:03.533Z,13.60
2018-11-06T21:59:31.811Z,13.60
2018-11-06T22:02:00.055Z,13.30
2018-11-06T22:04:28.455Z,13.40
2018-11-06T22:06:56.739Z,13.30
2018-11-06T22:09:24.970Z,13.40
2018-11-06T22:11:53.298Z,13.40
2018-11-06T22:14:31.042Z,13.30
2018-11-06T22:16:59.372Z,13.40
2018-11-06T22:19:27.596Z,13.40
2018-11-06T22:21:55.821Z,13.30
2018-11-06T22:24:24.068Z,13.10
2018-11-06T22:26:52.308Z,13.10
2018-11-06T22:29:20.556Z,13.20
2018-11-06T22:31:48.996Z,13.10
2018-11-06T22:34:19.516Z,13.10
2018-11-06T22:36:53.778Z,13.10
2018-11-06T22:39:22.590Z,13.20
2018-11-06T22:41:50.914Z,13.20
2018-11-06T22:44:19.120Z,13.20
2018-11-06T22:46:47.363Z,13.30
2018-11-06T22:49:15.634Z,13.30
2018-11-06T22:51:44.231Z,13.30
2018-11-06T22:54:12.459Z,13.20
2018-11-06T22:56:40.711Z,13.30
2018-11-06T22:59:08.930Z,13.20
2018-11-06T23:01:38.346Z,13.10
2018-11-06T23:04:06.620Z,13.10
2018-11-06T23:06:35.253Z,13.10
2018-11-06T23:09:04.619Z,13.10
2018-11-06T23:11:32.861Z,13.00
2018-11-06T23:14:01.122Z,13.00
2018-11-06T23:16:29.425Z,12.90
2018-11-06T23:18:57.698Z,12.90
2018-11-06T23:21:25.930Z,12.80
2018-11-06T23:23:54.150Z,12.80
2018-11-06T23:26:22.426Z,12.80
2018-11-06T23:28:50.666Z,12.90
2018-11-06T23:31:18.921Z,12.90
2018-11-06T23:33:47.163Z,12.80
2018-11-06T23:36:15.459Z,12.80
2018-11-06T23:38:43.735Z,12.80
2018-11-06T23:41:11.967Z,12.80
2018-11-06T23:43:41.493Z,12.70
2018-11-06T23:46:09.743Z,12.60
2018-11-06T23:48:38.295Z,12.50
2018-11-06T23:51:06.631Z,12.50
2018-11-06T23:53:34.859Z,12.40
2018-11-06T23:56:03.296Z,12.30
2018-11-06T23:58:31.520Z,12.30
